Time;durP1;ratioP1;P1;durP2;ratioP2;P2;SDS_P1;SDS_P2;PMS_P1;PMS_P2;Temp;Humidity;BMP_temperature;BMP_pressure;BME280_temperature;BME280_humidity;BME280_pressure;Samples;Min_cycle;Max_cycle;Signal;HPM_P1;HPM_P2
2023/12/13 00:00:19;;;;;;;0.50;0.50;;;;;;;10.00;100.00;95468.06;5078593;28;20232;-55
2023/12/13 00:02:47;;;;;;;0.40;0.40;;;;;;;10.04;100.00;95459.78;5074182;28;20317;-56
2023/12/13 00:05:13;;;;;;;2.33;0.40;;;;;;;10.02;100.00;95452.06;5074671;28;20221;-56
2023/12/13 00:07:40;;;;;;;0.40;0.30;;;;;;;10.02;100.00;95464.44;5074589;28;20245;-55
2023/12/13 00:10:07;;;;;;;0.50;0.40;;;;;;;9.97;100.00;95447.25;5072195;28;20670;-55
2023/12/13 00:12:34;;;;;;;0.50;0.50;;;;;;;9.94;100.00;95459.97;5074245;28;20274;-56
2023/12/13 00:15:01;;;;;;;1.03;0.40;;;;;;;9.99;100.00;95463.75;5073862;28;20206;-56
2023/12/13 00:17:27;;;;;;;0.30;0.30;;;;;;;9.90;100.00;95467.41;5074020;28;20213;-55
2023/12/13 00:19:58;;;;;;;0.50;0.23;;;;;;;9.93;100.00;95469.72;5073634;28;20524;-55
2023/12/13 00:22:25;;;;;;;0.43;0.30;;;;;;;9.98;100.00;95470.03;5074385;28;20202;-57
2023/12/13 00:24:51;;;;;;;0.40;0.30;;;;;;;9.89;100.00;95473.69;5073736;28;20223;-56
2023/12/13 00:27:18;;;;;;;0.10;0.10;;;;;;;9.86;100.00;95446.78;5074198;28;20198;-55
2023/12/13 00:29:44;;;;;;;0.53;0.30;;;;;;;9.88;100.00;95429.78;5073938;28;20215;-55
2023/12/13 00:32:11;;;;;;;1.43;1.10;;;;;;;9.81;100.00;95430.63;5074016;28;20201;-56
2023/12/13 00:34:37;;;;;;;1.10;0.27;;;;;;;9.86;100.00;95429.13;5072973;28;20293;-56
2023/12/13 00:37:05;;;;;;;0.40;0.40;;;;;;;9.89;100.00;95423.50;5074149;28;20297;-56
2023/12/13 00:39:32;;;;;;;0.40;0.20;;;;;;;9.86;100.00;95413.28;5073750;28;20213;-56
2023/12/13 00:41:59;;;;;;;0.77;0.20;;;;;;;9.87;100.00;95420.22;5073669;28;20513;-54
2023/12/13 00:44:27;;;;;;;0.50;0.20;;;;;;;9.91;100.00;95416.25;5073184;28;20264;-56
2023/12/13 00:46:53;;;;;;;0.10;0.10;;;;;;;9.96;100.00;95408.63;5073429;28;20305;-56
2023/12/13 00:49:21;;;;;;;0.40;0.10;;;;;;;9.96;100.00;95403.34;5073190;28;20226;-55
2023/12/13 00:51:48;;;;;;;0.10;0.10;;;;;;;10.04;100.00;95401.69;5072562;28;20537;-55
2023/12/13 00:54:16;;;;;;;0.20;0.20;;;;;;;10.11;100.00;95398.19;5073209;28;20613;-56
2023/12/13 00:56:42;;;;;;;0.10;0.10;;;;;;;10.08;100.00;95405.63;5073531;28;20213;-56
2023/12/13 00:59:09;;;;;;;0.10;0.10;;;;;;;10.04;100.00;95399.88;5073444;28;20205;-56
2023/12/13 01:01:43;;;;;;;0.23;0.23;;;;;;;10.02;100.00;95401.03;5073910;28;20837;-56
2023/12/13 01:04:10;;;;;;;0.40;0.27;;;;;;;9.97;100.00;95394.44;5073040;28;20203;-56
2023/12/13 01:06:36;;;;;;;0.10;0.10;;;;;;;9.94;100.00;95388.69;5073608;28;20220;-56
2023/12/13 01:09:03;;;;;;;0.40;0.20;;;;;;;9.89;100.00;95383.06;5072755;28;20244;-57
2023/12/13 01:11:32;;;;;;;0.60;0.60;;;;;;;9.91;100.00;95379.28;5073047;28;20297;-55
2023/12/13 01:13:59;;;;;;;0.20;0.20;;;;;;;9.93;100.00;95372.00;5073301;28;20198;-56
2023/12/13 01:16:25;;;;;;;0.23;0.10;;;;;;;9.87;100.00;95390.34;5073279;28;20217;-56
2023/12/13 01:18:52;;;;;;;0.30;0.20;;;;;;;9.83;100.00;95387.22;5073095;28;20544;-55
2023/12/13 01:21:21;;;;;;;0.53;0.10;;;;;;;9.81;100.00;95386.56;5072873;28;20199;-57
2023/12/13 01:23:47;;;;;;;0.73;0.23;;;;;;;9.71;100.00;95388.56;5072439;28;20295;-55
2023/12/13 01:26:14;;;;;;;0.30;0.30;;;;;;;9.75;100.00;95395.16;5073230;28;20305;-56
2023/12/13 01:28:42;;;;;;;0.97;0.20;;;;;;;9.69;100.00;95403.75;5072264;28;20658;-56
2023/12/13 01:31:09;;;;;;;0.53;0.10;;;;;;;9.65;100.00;95415.63;5082003;28;20222;-56
2023/12/13 01:33:35;;;;;;;0.40;0.20;;;;;;;9.68;100.00;95417.94;5088214;28;20212;-56
2023/12/13 01:36:02;;;;;;;0.40;0.30;;;;;;;9.51;100.00;95403.13;5091198;28;20303;-55
2023/12/13 01:38:28;;;;;;;0.23;0.20;;;;;;;9.50;100.00;95404.94;5074703;28;20631;-57
2023/12/13 01:40:55;;;;;;;2.37;2.17;;;;;;;9.47;100.00;95401.81;5072675;28;20301;-56
2023/12/13 01:43:23;;;;;;;2.83;1.20;;;;;;;9.45;100.00;95419.63;5073498;28;20228;-56
2023/12/13 01:45:51;;;;;;;0.53;0.23;;;;;;;9.42;100.00;95404.94;5076254;28;20229;-56
2023/12/13 01:48:17;;;;;;;0.63;0.57;;;;;;;9.42;100.00;95412.03;5076872;28;20289;-56
2023/12/13 01:50:44;;;;;;;0.30;0.30;;;;;;;9.48;100.00;95406.91;5075243;28;20268;-56
2023/12/13 01:53:11;;;;;;;0.77;0.23;;;;;;;9.49;100.00;95399.84;5075289;28;20230;-56
2023/12/13 01:55:38;;;;;;;0.73;0.20;;;;;;;9.53;100.00;95397.69;5073436;28;20213;-56
2023/12/13 01:58:04;;;;;;;0.60;0.30;;;;;;;9.57;100.00;95391.88;5075506;28;20209;-56
2023/12/13 02:00:33;;;;;;;0.50;0.40;;;;;;;9.52;100.00;95388.13;5075825;28;20309;-55
2023/12/13 02:03:02;;;;;;;0.40;0.20;;;;;;;9.51;100.00;95382.00;5072072;28;20249;-60
2023/12/13 02:05:29;;;;;;;1.53;0.30;;;;;;;9.56;100.00;95376.25;5072440;28;20206;-56
2023/12/13 02:07:56;;;;;;;1.30;0.40;;;;;;;9.57;100.00;95376.06;5071808;28;20624;-57
2023/12/13 02:10:23;;;;;;;0.50;0.37;;;;;;;9.60;100.00;95367.78;5071627;28;20692;-56
2023/12/13 02:12:50;;;;;;;0.30;0.30;;;;;;;9.59;100.00;95367.97;5072014;28;20289;-56
2023/12/13 02:15:18;;;;;;;0.63;0.40;;;;;;;9.58;100.00;95367.16;5070997;28;20704;-55
2023/12/13 02:17:54;;;;;;;1.87;0.40;;;;;;;9.61;100.00;95366.81;5071224;28;20221;-56
2023/12/13 02:20:22;;;;;;;0.40;0.40;;;;;;;9.58;100.00;95359.22;5071908;28;20213;-56
2023/12/13 02:22:50;;;;;;;0.20;0.20;;;;;;;9.55;100.00;95362.22;5071565;28;20222;-57
2023/12/13 02:25:20;;;;;;;0.70;0.40;;;;;;;9.66;100.00;95359.22;5072024;28;20308;-55
2023/12/13 02:27:47;;;;;;;0.00;0.00;;;;;;;9.68;100.00;95351.13;5072127;28;20206;-57
2023/12/13 02:30:14;;;;;;;0.30;0.30;;;;;;;9.68;100.00;95341.38;5071717;28;20225;-57
2023/12/13 02:32:40;;;;;;;0.47;0.40;;;;;;;9.70;100.00;95328.88;5071561;28;20627;-57
2023/12/13 02:35:07;;;;;;;0.50;0.37;;;;;;;9.73;100.00;95328.53;5071481;28;20270;-55
2023/12/13 02:37:34;;;;;;;1.70;0.40;;;;;;;9.74;100.00;95330.16;5071832;28;20194;-57
2023/12/13 02:40:03;;;;;;;0.20;0.20;;;;;;;9.70;100.00;95312.19;5070888;28;20190;-56
2023/12/13 02:42:30;;;;;;;0.73;0.20;;;;;;;9.70;100.00;95322.75;5071291;28;20611;-56
2023/12/13 02:44:57;;;;;;;0.10;0.10;;;;;;;9.67;100.00;95315.19;5070992;28;20675;-55
2023/12/13 02:47:25;;;;;;;0.40;0.30;;;;;;;9.63;100.00;95321.78;5071704;28;20206;-55
2023/12/13 02:49:52;;;;;;;0.23;0.23;;;;;;;9.53;100.00;95308.75;5071441;28;20463;-56
2023/12/13 02:52:18;;;;;;;0.20;0.20;;;;;;;9.58;100.00;95300.34;5071489;28;20305;-55
2023/12/13 02:54:45;;;;;;;0.13;0.10;;;;;;;9.49;100.00;95300.38;5071061;28;20293;-57
2023/12/13 02:57:13;;;;;;;0.20;0.20;;;;;;;9.40;100.00;95292.66;5071326;28;20297;-56
2023/12/13 02:59:40;;;;;;;0.73;0.13;;;;;;;9.32;100.00;95276.81;5071048;28;20715;-55
2023/12/13 03:02:06;;;;;;;1.57;0.30;;;;;;;9.26;100.00;95278.34;5070761;28;20769;-57
2023/12/13 03:04:33;;;;;;;1.10;0.20;;;;;;;9.15;100.00;95276.03;5071254;28;20285;-56
2023/12/13 03:07:00;;;;;;;1.33;0.47;;;;;;;9.13;100.00;95288.59;5070657;28;20955;-57
2023/12/13 03:09:26;;;;;;;1.03;0.40;;;;;;;9.08;100.00;95285.63;5070843;28;20303;-55
2023/12/13 03:11:53;;;;;;;0.20;0.10;;;;;;;9.04;100.00;95288.75;5070840;28;20204;-56
2023/12/13 03:14:21;;;;;;;0.40;0.30;;;;;;;8.97;100.00;95275.41;5071085;28;20198;-55
2023/12/13 03:16:50;;;;;;;0.53;0.40;;;;;;;8.98;100.00;95279.69;5071102;28;20199;-55
2023/12/13 03:19:17;;;;;;;1.13;0.27;;;;;;;8.95;100.00;95278.22;5071830;28;20228;-56
2023/12/13 03:21:44;;;;;;;2.10;0.40;;;;;;;8.98;100.00;95285.81;5071872;28;20285;-56
2023/12/13 03:24:10;;;;;;;0.73;0.30;;;;;;;8.97;100.00;95292.06;5071407;28;20206;-56
2023/12/13 03:26:37;;;;;;;0.77;0.30;;;;;;;8.98;100.00;95295.53;5071879;28;20663;-56
2023/12/13 03:29:04;;;;;;;0.57;0.37;;;;;;;8.96;100.00;95284.31;5075687;28;20218;-57
2023/12/13 03:31:33;;;;;;;0.77;0.30;;;;;;;8.95;100.00;95296.69;5074847;28;20232;-56
2023/12/13 03:34:00;;;;;;;0.67;0.20;;;;;;;8.95;100.00;95291.41;5075529;28;20209;-56
2023/12/13 03:36:30;;;;;;;2.27;0.40;;;;;;;8.99;100.00;95298.00;5076201;28;20279;-56
2023/12/13 03:38:57;;;;;;;0.63;0.60;;;;;;;9.01;100.00;95311.00;5073994;28;20206;-55
2023/12/13 03:41:23;;;;;;;0.30;0.20;;;;;;;9.08;100.00;95312.00;5074106;28;20207;-56
2023/12/13 03:43:50;;;;;;;1.37;0.33;;;;;;;9.06;100.00;95310.50;5073380;28;20290;-56
2023/12/13 03:46:17;;;;;;;0.83;0.40;;;;;;;9.06;100.00;95321.06;5076475;28;20198;-55
2023/12/13 03:48:45;;;;;;;0.30;0.23;;;;;;;9.11;100.00;95329.28;5090743;28;20550;-55
2023/12/13 03:51:12;;;;;;;0.80;0.33;;;;;;;9.16;100.00;95313.78;5089529;28;20599;-56
2023/12/13 03:53:39;;;;;;;0.43;0.30;;;;;;;9.15;100.00;95322.69;5087961;28;20285;-57
2023/12/13 03:56:06;;;;;;;0.20;0.20;;;;;;;9.21;100.00;95316.78;5075458;28;20198;-56
2023/12/13 03:58:33;;;;;;;0.20;0.20;;;;;;;9.18;100.00;95306.53;5075498;28;20293;-57
2023/12/13 04:01:00;;;;;;;1.43;0.40;;;;;;;9.16;100.00;95266.31;5075151;28;20285;-56
2023/12/13 04:03:29;;;;;;;0.60;0.30;;;;;;;9.16;100.00;95247.88;5073943;28;20574;-56
2023/12/13 04:05:57;;;;;;;1.70;0.20;;;;;;;9.26;100.00;95251.13;5074645;28;20213;-54
2023/12/13 04:08:24;;;;;;;0.57;0.30;;;;;;;9.25;100.00;95265.31;5074841;28;20217;-56
2023/12/13 04:10:51;;;;;;;0.43;0.37;;;;;;;9.28;100.00;95259.72;5074404;28;20307;-57
2023/12/13 04:13:18;;;;;;;0.57;0.50;;;;;;;9.22;100.00;95249.81;5074830;28;20207;-57
2023/12/13 04:15:45;;;;;;;1.37;0.20;;;;;;;9.21;100.00;95241.09;5074704;28;20195;-57
2023/12/13 04:18:11;;;;;;;1.90;0.30;;;;;;;9.23;100.00;95248.84;5076631;28;20292;-56
2023/12/13 04:20:38;;;;;;;0.37;0.37;;;;;;;9.22;100.00;95252.47;5076010;28;20229;-57
2023/12/13 04:23:06;;;;;;;0.20;0.20;;;;;;;9.23;100.00;95252.31;5074061;28;20216;-56
2023/12/13 04:25:32;;;;;;;0.20;0.20;;;;;;;9.16;100.00;95256.59;5073700;28;20612;-56
2023/12/13 04:27:59;;;;;;;0.77;0.53;;;;;;;9.05;100.00;95249.03;5074501;28;20198;-56
2023/12/13 04:30:27;;;;;;;0.30;0.23;;;;;;;9.07;100.00;95248.88;5074041;28;20232;-56
2023/12/13 04:32:55;;;;;;;0.30;0.30;;;;;;;9.04;100.00;95252.66;5074806;28;20873;-57
2023/12/13 04:35:22;;;;;;;0.30;0.30;;;;;;;9.08;100.00;95245.22;5075754;28;21407;-56
2023/12/13 04:37:49;;;;;;;0.40;0.40;;;;;;;9.13;100.00;95248.22;5074485;28;20198;-56
2023/12/13 04:40:17;;;;;;;0.20;0.20;;;;;;;9.03;100.00;95251.03;5074175;28;20283;-57
2023/12/13 04:42:44;;;;;;;0.10;0.10;;;;;;;9.07;100.00;95252.31;5074682;28;20213;-56
2023/12/13 04:45:10;;;;;;;0.30;0.30;;;;;;;8.97;100.00;95252.50;5076951;28;20198;-56
2023/12/13 04:47:37;;;;;;;0.20;0.20;;;;;;;9.03;100.00;95250.22;5077632;28;20231;-57
2023/12/13 04:50:04;;;;;;;1.60;0.40;;;;;;;9.07;100.00;95247.03;5075279;28;20273;-56
2023/12/13 04:52:30;;;;;;;0.50;0.30;;;;;;;9.10;100.00;95245.91;5074418;28;20219;-57
2023/12/13 04:54:57;;;;;;;1.33;0.30;;;;;;;9.06;100.00;95244.59;5074625;28;20641;-55
2023/12/13 04:57:25;;;;;;;0.20;0.20;;;;;;;9.08;100.00;95245.22;5075700;28;20216;-56
2023/12/13 04:59:52;;;;;;;0.47;0.30;;;;;;;9.07;100.00;95252.31;5074551;28;20206;-57
2023/12/13 05:02:18;;;;;;;0.20;0.20;;;;;;;9.02;100.00;95233.56;5073932;28;20254;-57
2023/12/13 05:04:45;;;;;;;0.20;0.20;;;;;;;8.96;100.00;95228.97;5073989;28;20202;-56
2023/12/13 05:07:12;;;;;;;0.37;0.10;;;;;;;8.96;100.00;95229.75;5073465;28;20567;-57
2023/12/13 05:09:38;;;;;;;0.47;0.20;;;;;;;8.99;100.00;95234.72;5073113;28;20281;-55
2023/12/13 05:12:05;;;;;;;0.20;0.20;;;;;;;9.00;100.00;95238.97;5072957;28;20231;-55
2023/12/13 05:14:33;;;;;;;0.20;0.20;;;;;;;9.02;100.00;95241.47;5072604;28;20649;-57
2023/12/13 05:17:00;;;;;;;0.63;0.10;;;;;;;8.94;100.00;95229.13;5072720;28;20535;-56
2023/12/13 05:19:26;;;;;;;0.20;0.20;;;;;;;8.92;100.00;95231.13;5072314;28;20224;-57
2023/12/13 05:21:53;;;;;;;0.10;0.10;;;;;;;8.98;100.00;95237.53;5072435;28;20310;-57
2023/12/13 05:24:19;;;;;;;0.30;0.30;;;;;;;8.95;100.00;95236.03;5071665;28;20545;-57
2023/12/13 05:26:47;;;;;;;0.03;0.03;;;;;;;8.93;100.00;95219.56;5072823;28;20198;-57
2023/12/13 05:29:13;;;;;;;0.93;0.20;;;;;;;8.94;100.00;95225.66;5072746;28;20216;-57
2023/12/13 05:31:41;;;;;;;0.13;0.13;;;;;;;8.88;100.00;95224.53;5073224;28;20229;-57
2023/12/13 05:34:09;;;;;;;0.23;0.17;;;;;;;8.88;100.00;95215.78;5072442;28;20194;-57
2023/12/13 05:36:36;;;;;;;0.30;0.20;;;;;;;8.93;100.00;95214.28;5072500;28;20596;-56
2023/12/13 05:39:03;;;;;;;0.10;0.10;;;;;;;8.93;100.00;95221.38;5072556;28;20683;-58
2023/12/13 05:41:30;;;;;;;0.10;0.10;;;;;;;8.95;100.00;95219.41;5074342;28;20635;-57
2023/12/13 05:43:57;;;;;;;0.10;0.10;;;;;;;8.95;100.00;95214.97;5073852;28;20232;-57
2023/12/13 05:46:24;;;;;;;1.70;0.20;;;;;;;8.98;100.00;95214.63;5074589;28;20210;-57
2023/12/13 05:48:52;;;;;;;0.03;0.03;;;;;;;8.90;100.00;95203.25;5075165;28;20237;-56
2023/12/13 05:51:18;;;;;;;0.37;0.20;;;;;;;8.89;100.00;95201.63;5071839;28;20232;-55
2023/12/13 05:53:45;;;;;;;0.20;0.17;;;;;;;8.84;100.00;95194.22;5072432;28;20214;-55
2023/12/13 05:56:12;;;;;;;0.30;0.20;;;;;;;8.76;100.00;95196.84;5072338;28;20221;-55
2023/12/13 05:58:39;;;;;;;0.40;0.23;;;;;;;8.76;100.00;95190.75;5071894;28;20646;-56
2023/12/13 06:01:06;;;;;;;0.30;0.27;;;;;;;8.71;100.00;95187.81;5072460;28;20535;-55
2023/12/13 06:03:33;;;;;;;0.17;0.10;;;;;;;8.75;100.00;95194.41;5076708;28;20325;-58
2023/12/13 06:06:01;;;;;;;0.20;0.17;;;;;;;8.73;100.00;95181.38;5088388;28;20270;-56
2023/12/13 06:08:28;;;;;;;0.30;0.20;;;;;;;8.73;100.00;95176.13;5093690;28;20257;-55
2023/12/13 06:10:54;;;;;;;0.10;0.10;;;;;;;8.67;100.00;95179.44;5078566;28;20313;-57
2023/12/13 06:13:21;;;;;;;0.40;0.20;;;;;;;8.75;100.00;95174.13;5072679;28;20294;-56
2023/12/13 06:15:48;;;;;;;1.33;0.20;;;;;;;8.67;100.00;95175.97;5072774;28;20213;-54
2023/12/13 06:18:14;;;;;;;0.10;0.10;;;;;;;8.59;100.00;95173.34;5072409;28;20218;-54
2023/12/13 06:20:41;;;;;;;0.20;0.20;;;;;;;8.54;100.00;95181.72;5072025;28;20289;-56
2023/12/13 06:23:08;;;;;;;0.20;0.20;;;;;;;8.50;100.00;95178.59;5071892;28;20241;-55
2023/12/13 06:25:35;;;;;;;0.20;0.10;;;;;;;8.47;100.00;95175.47;5072084;28;20298;-57
2023/12/13 06:28:02;;;;;;;0.20;0.20;;;;;;;8.46;100.00;95173.84;5071230;28;20329;-56
2023/12/13 06:30:28;;;;;;;0.20;0.20;;;;;;;8.42;100.00;95169.91;5071935;28;20212;-55
2023/12/13 06:32:55;;;;;;;0.80;0.80;;;;;;;8.40;100.00;95164.78;5071910;28;20211;-56
2023/12/13 06:35:21;;;;;;;0.30;0.30;;;;;;;8.40;100.00;95161.31;5071266;28;20651;-56
2023/12/13 06:37:50;;;;;;;0.10;0.10;;;;;;;8.45;100.00;95172.19;5070478;28;21416;-55
2023/12/13 06:40:18;;;;;;;0.20;0.20;;;;;;;8.40;100.00;95183.22;5071611;28;20516;-56
2023/12/13 06:42:45;;;;;;;0.43;0.30;;;;;;;8.41;100.00;95181.41;5071633;28;20198;-55
2023/12/13 06:45:11;;;;;;;0.20;0.20;;;;;;;8.46;100.00;95184.38;5071657;28;20612;-55
2023/12/13 06:47:40;;;;;;;0.20;0.20;;;;;;;8.45;100.00;95188.00;5071712;28;20206;-55
2023/12/13 06:50:08;;;;;;;0.30;0.30;;;;;;;8.41;100.00;95186.69;5070791;28;20206;-54
2023/12/13 06:52:34;;;;;;;0.70;0.70;;;;;;;8.43;100.00;95190.00;5071619;28;20226;-54
2023/12/13 06:55:01;;;;;;;0.20;0.10;;;;;;;8.58;100.00;95185.69;5071432;28;20298;-55
2023/12/13 06:57:29;;;;;;;0.20;0.20;;;;;;;8.57;100.00;95181.41;5071715;28;20394;-53
2023/12/13 06:59:58;;;;;;;0.30;0.30;;;;;;;8.55;100.00;95180.75;5071119;28;20203;-60
2023/12/13 07:02:24;;;;;;;0.10;0.10;;;;;;;8.53;100.00;95180.09;5071104;28;20230;-55
2023/12/13 07:04:51;;;;;;;0.20;0.20;;;;;;;8.51;100.00;95189.97;5071503;28;20203;-57
2023/12/13 07:07:17;;;;;;;0.70;0.50;;;;;;;8.55;100.00;95187.81;5071186;28;20205;-57
2023/12/13 07:09:47;;;;;;;0.10;0.10;;;;;;;8.56;100.00;95168.41;5070927;28;20207;-56
2023/12/13 07:12:14;;;;;;;0.17;0.17;;;;;;;8.56;100.00;95161.31;5071241;28;20306;-57
2023/12/13 07:14:44;;;;;;;0.40;0.40;;;;;;;8.57;100.00;95170.88;5071053;28;20210;-56
2023/12/13 07:17:11;;;;;;;0.20;0.20;;;;;;;8.59;100.00;95183.88;5070489;28;20291;-55
2023/12/13 07:19:38;;;;;;;0.73;0.30;;;;;;;8.61;100.00;95177.44;5074612;28;20198;-56
2023/12/13 07:22:05;;;;;;;0.30;0.30;;;;;;;8.61;100.00;95166.91;5071458;28;20289;-58
2023/12/13 07:24:31;;;;;;;0.90;0.40;;;;;;;8.60;100.00;95152.09;5070647;28;20202;-57
2023/12/13 07:26:58;;;;;;;0.27;0.27;;;;;;;8.56;100.00;95142.06;5071271;28;20206;-56
2023/12/13 07:29:24;;;;;;;1.03;0.30;;;;;;;8.70;100.00;95134.28;5070913;28;20230;-56
2023/12/13 07:31:53;;;;;;;0.50;0.50;;;;;;;8.71;100.00;95146.47;5070613;28;20226;-56
2023/12/13 07:34:20;;;;;;;0.50;0.50;;;;;;;8.64;100.00;95140.25;5069934;28;20642;-56
2023/12/13 07:36:49;;;;;;;0.73;0.33;;;;;;;8.74;100.00;95134.78;5070595;28;20260;-59
2023/12/13 07:39:17;;;;;;;0.60;0.40;;;;;;;8.70;100.00;95150.09;5070359;28;20298;-56
2023/12/13 07:41:44;;;;;;;0.30;0.30;;;;;;;8.83;100.00;95153.03;5070699;28;20299;-55
2023/12/13 07:44:11;;;;;;;0.60;0.30;;;;;;;8.84;100.00;95165.22;5071501;28;20225;-57
2023/12/13 07:46:38;;;;;;;1.40;0.30;;;;;;;8.80;100.00;95150.72;5071788;28;20225;-55
2023/12/13 07:49:06;;;;;;;0.47;0.30;;;;;;;8.80;100.00;95147.28;5071475;28;20206;-56
2023/12/13 07:51:34;;;;;;;0.30;0.30;;;;;;;8.90;100.00;95140.81;5071099;28;20333;-56
2023/12/13 07:54:01;;;;;;;0.67;0.30;;;;;;;8.96;100.00;95150.66;5071427;28;20290;-54
2023/12/13 07:56:29;;;;;;;1.23;0.37;;;;;;;8.88;100.00;95134.91;5071838;28;20211;-55
2023/12/13 07:58:56;;;;;;;0.30;0.30;;;;;;;8.94;100.00;95139.50;5070590;28;20198;-56
2023/12/13 08:01:23;;;;;;;0.20;0.10;;;;;;;8.88;100.00;95158.63;5070175;28;20194;-56
2023/12/13 08:03:49;;;;;;;0.87;0.30;;;;;;;8.86;100.00;95165.88;5069733;28;20234;-56
2023/12/13 08:06:18;;;;;;;0.70;0.30;;;;;;;8.82;100.00;95159.28;5070427;28;20202;-55
2023/12/13 08:08:47;;;;;;;0.87;0.20;;;;;;;8.77;100.00;95156.34;5070329;28;20210;-57
2023/12/13 08:11:15;;;;;;;0.73;0.40;;;;;;;8.87;100.00;95156.16;5068717;28;20237;-56
2023/12/13 08:13:42;;;;;;;0.40;0.40;;;;;;;8.83;100.00;95166.19;5070038;28;20216;-56
2023/12/13 08:16:09;;;;;;;0.23;0.23;;;;;;;8.85;100.00;95153.69;5073540;28;20198;-56
2023/12/13 08:18:36;;;;;;;1.50;0.20;;;;;;;8.86;100.00;95160.59;5074497;28;20213;-57
2023/12/13 08:21:03;;;;;;;0.30;0.23;;;;;;;8.89;100.00;95159.44;5080566;28;20198;-56
2023/12/13 08:23:31;;;;;;;2.13;0.50;;;;;;;8.88;100.00;95157.81;5084559;28;20209;-55
2023/12/13 08:25:57;;;;;;;0.50;0.30;;;;;;;8.87;100.00;95156.97;5085369;28;20198;-55
2023/12/13 08:28:24;;;;;;;0.30;0.30;;;;;;;8.88;100.00;95157.81;5074596;28;20756;-56
2023/12/13 08:30:51;;;;;;;1.80;0.30;;;;;;;8.84;100.00;95153.84;5073625;28;20627;-56
2023/12/13 08:33:20;;;;;;;1.73;0.60;;;;;;;8.87;100.00;95156.16;5073676;28;20663;-55
2023/12/13 08:35:47;;;;;;;0.27;0.27;;;;;;;8.91;100.00;95158.28;5073852;28;20213;-55
2023/12/13 08:38:13;;;;;;;0.60;0.50;;;;;;;9.07;100.00;95162.66;5074111;28;20211;-56
2023/12/13 08:40:41;;;;;;;1.20;0.60;;;;;;;9.07;100.00;95167.16;5074063;28;20220;-54
2023/12/13 08:43:08;;;;;;;0.70;0.40;;;;;;;9.02;100.00;95170.28;5074090;28;20209;-57
2023/12/13 08:45:35;;;;;;;0.30;0.30;;;;;;;9.07;100.00;95175.06;5074024;28;20210;-57
2023/12/13 08:48:03;;;;;;;0.50;0.47;;;;;;;9.01;100.00;95168.63;5074056;28;20207;-56
2023/12/13 08:50:30;;;;;;;0.33;0.33;;;;;;;8.96;100.00;95168.34;5072478;28;20642;-55
2023/12/13 08:52:57;;;;;;;1.10;0.30;;;;;;;9.07;100.00;95175.84;5073755;28;20218;-56
2023/12/13 08:55:23;;;;;;;0.20;0.20;;;;;;;9.05;100.00;95175.22;5073608;28;20740;-56
2023/12/13 08:57:51;;;;;;;0.30;0.20;;;;;;;9.06;100.00;95171.59;5073686;28;20198;-55
2023/12/13 09:00:19;;;;;;;1.40;0.60;;;;;;;9.18;100.00;95174.66;5074012;28;20216;-56
2023/12/13 09:02:46;;;;;;;0.23;0.23;;;;;;;9.29;100.00;95184.84;5073694;28;20291;-56
2023/12/13 09:05:13;;;;;;;0.17;0.17;;;;;;;9.31;100.00;95185.53;5073170;28;20202;-57
2023/12/13 09:07:40;;;;;;;0.33;0.33;;;;;;;9.33;100.00;95180.88;5072811;28;20242;-56
2023/12/13 09:10:09;;;;;;;0.60;0.43;;;;;;;9.40;100.00;95176.56;5072251;28;20199;-55
2023/12/13 09:12:36;;;;;;;0.30;0.30;;;;;;;9.33;100.00;95188.78;5072004;28;20226;-56
2023/12/13 09:15:06;;;;;;;0.23;0.23;;;;;;;9.33;100.00;95179.06;5072713;28;20245;-56
2023/12/13 09:17:33;;;;;;;0.30;0.30;;;;;;;9.39;100.00;95180.19;5072693;28;20194;-56
2023/12/13 09:20:00;;;;;;;0.77;0.40;;;;;;;9.27;100.00;95181.56;5072180;28;20248;-56
2023/12/13 09:22:26;;;;;;;0.20;0.20;;;;;;;9.23;100.00;95177.63;5071712;28;20201;-56
2023/12/13 09:24:53;;;;;;;0.20;0.20;;;;;;;9.18;100.00;95170.22;5072235;28;20264;-56
2023/12/13 09:27:22;;;;;;;0.53;0.43;;;;;;;9.20;100.00;95177.97;5072565;28;20524;-56
2023/12/13 09:29:49;;;;;;;0.60;0.37;;;;;;;9.23;100.00;95182.91;5072313;28;20195;-56
2023/12/13 09:32:18;;;;;;;0.53;0.53;;;;;;;9.17;100.00;95178.31;5072285;28;20232;-55
2023/12/13 09:34:45;;;;;;;0.33;0.33;;;;;;;9.06;100.00;95176.88;5072609;28;20206;-55
2023/12/13 09:37:11;;;;;;;0.27;0.27;;;;;;;9.16;100.00;95172.22;5072904;28;20213;-55
2023/12/13 09:39:38;;;;;;;0.40;0.30;;;;;;;9.14;100.00;95170.75;5072288;28;20208;-56
2023/12/13 09:42:05;;;;;;;0.60;0.60;;;;;;;9.13;100.00;95184.91;5072243;28;20209;-55
2023/12/13 09:44:33;;;;;;;0.20;0.20;;;;;;;9.17;100.00;95184.41;5072218;28;20207;-57
2023/12/13 09:47:03;;;;;;;1.13;0.83;;;;;;;9.15;100.00;95182.91;5070627;28;20194;-56
2023/12/13 09:49:34;;;;;;;0.50;0.50;;;;;;;9.10;100.00;95183.44;5071474;28;20657;-56
2023/12/13 09:52:04;;;;;;;1.70;0.53;;;;;;;9.11;100.00;95189.53;5072864;28;20283;-56
2023/12/13 09:54:32;;;;;;;0.30;0.30;;;;;;;9.08;100.00;95184.59;5071830;28;20235;-56
2023/12/13 09:56:58;;;;;;;0.60;0.30;;;;;;;9.20;100.00;95188.53;5070938;28;20213;-57
2023/12/13 09:59:25;;;;;;;0.33;0.33;;;;;;;9.21;100.00;95179.63;5072103;28;20198;-56
2023/12/13 10:01:52;;;;;;;0.40;0.40;;;;;;;9.18;100.00;95174.66;5071436;28;20213;-54
2023/12/13 10:04:19;;;;;;;0.40;0.40;;;;;;;9.25;100.00;95180.91;5071718;28;20194;-56
2023/12/13 10:06:47;;;;;;;0.60;0.40;;;;;;;9.31;100.00;95188.16;5072399;28;20206;-56
2023/12/13 10:09:14;;;;;;;0.33;0.20;;;;;;;9.32;100.00;95187.13;5073662;28;20199;-55
2023/12/13 10:11:41;;;;;;;0.40;0.30;;;;;;;9.35;100.00;95184.97;5074107;28;20518;-55
2023/12/13 10:14:07;;;;;;;0.30;0.30;;;;;;;9.42;100.00;95185.94;5073900;28;20202;-56
2023/12/13 10:16:39;;;;;;;0.40;0.13;;;;;;;9.44;100.00;95175.22;5072980;28;20260;-56
2023/12/13 10:19:06;;;;;;;0.30;0.30;;;;;;;9.46;100.00;95174.06;5071912;28;20627;-56
2023/12/13 10:21:34;;;;;;;0.10;0.10;;;;;;;9.47;100.00;95174.88;5072272;28;21437;-55
2023/12/13 10:24:02;;;;;;;1.00;0.40;;;;;;;9.47;100.00;95180.16;5071025;28;20203;-57
2023/12/13 10:26:29;;;;;;;0.67;0.67;;;;;;;9.52;100.00;95177.00;5072153;28;20591;-56
2023/12/13 10:28:56;;;;;;;0.60;0.47;;;;;;;9.57;100.00;95179.94;5070962;28;20217;-56
2023/12/13 10:31:22;;;;;;;0.30;0.30;;;;;;;9.55;100.00;95179.31;5071540;28;20198;-57
2023/12/13 10:33:49;;;;;;;0.30;0.30;;;;;;;9.57;100.00;95164.09;5071295;28;20230;-56
2023/12/13 10:36:16;;;;;;;0.97;0.50;;;;;;;9.60;100.00;95167.22;5073076;28;20283;-57
2023/12/13 10:38:44;;;;;;;0.47;0.30;;;;;;;9.54;100.00;95169.75;5078438;28;20202;-55
2023/12/13 10:41:13;;;;;;;1.33;0.60;;;;;;;9.50;100.00;95179.81;5088574;28;20226;-55
2023/12/13 10:43:42;;;;;;;0.40;0.40;;;;;;;9.46;100.00;95189.06;5073845;28;20190;-56
2023/12/13 10:46:09;;;;;;;1.00;0.47;;;;;;;9.37;100.00;95195.38;5075198;28;20333;-56
2023/12/13 10:48:38;;;;;;;0.57;0.57;;;;;;;9.35;100.00;95202.66;5076006;28;20621;-56
2023/12/13 10:51:05;;;;;;;0.50;0.50;;;;;;;9.19;100.00;95203.53;5074211;28;20202;-56
2023/12/13 10:53:32;;;;;;;0.97;0.30;;;;;;;9.19;100.00;95200.88;5073808;28;20734;-55
2023/12/13 10:56:00;;;;;;;0.30;0.30;;;;;;;9.00;100.00;95202.06;5071531;28;20202;-56
2023/12/13 10:58:29;;;;;;;1.80;0.70;;;;;;;9.09;100.00;95197.63;5071087;28;20579;-57
2023/12/13 11:00:56;;;;;;;0.53;0.50;;;;;;;9.03;100.00;95181.66;5071549;28;20285;-56
2023/12/13 11:03:31;;;;;;;0.30;0.30;;;;;;;9.08;100.00;95181.94;5071149;28;20721;-57
2023/12/13 11:05:57;;;;;;;0.67;0.67;;;;;;;9.04;100.00;95178.00;5070943;28;20334;-57
2023/12/13 11:08:24;;;;;;;0.60;0.60;;;;;;;9.04;100.00;95167.47;5070963;28;20198;-56
2023/12/13 11:11:02;;;;;;;1.27;0.60;;;;;;;9.11;100.00;95163.16;5071261;28;20291;-56
2023/12/13 11:13:30;;;;;;;0.40;0.40;;;;;;;9.14;100.00;95170.75;5070139;28;20232;-57
2023/12/13 11:15:57;;;;;;;0.50;0.40;;;;;;;9.19;100.00;95155.22;5071079;28;20214;-55
2023/12/13 11:18:24;;;;;;;0.87;0.40;;;;;;;9.12;100.00;95152.44;5070160;28;20217;-55
2023/12/13 11:20:54;;;;;;;0.50;0.50;;;;;;;9.13;100.00;95145.38;5070802;28;20209;-56
2023/12/13 11:23:25;;;;;;;0.50;0.50;;;;;;;9.09;100.00;95151.97;5070330;28;20191;-55
2023/12/13 11:25:51;;;;;;;0.43;0.43;;;;;;;9.04;100.00;95146.38;5070561;28;20230;-54
2023/12/13 11:28:22;;;;;;;0.37;0.30;;;;;;;9.00;100.00;95138.81;5071070;28;20226;-54
2023/12/13 11:30:50;;;;;;;1.33;0.70;;;;;;;9.04;100.00;95135.81;5070639;28;20206;-56
2023/12/13 11:33:17;;;;;;;1.43;0.90;;;;;;;9.09;100.00;95128.22;5070355;28;20311;-56